createdAt,value
2023-04-18T00:05:48.442Z,225
2023-04-18T00:21:45.823Z,270
2023-04-18T00:37:43.753Z,0
2023-04-18T00:48:22.397Z,270
2023-04-18T00:53:41.944Z,270
2023-04-18T01:04:20.289Z,315
2023-04-18T01:20:17.771Z,270
2023-04-18T01:30:56.853Z,225
2023-04-18T01:36:15.674Z,270
2023-04-18T01:46:53.965Z,225
2023-04-18T02:02:51.548Z,315
2023-04-18T02:13:30.346Z,315
2023-04-18T02:18:49.128Z,315
2023-04-18T02:29:27.920Z,180
2023-04-18T02:45:26.376Z,0
2023-04-18T03:01:24.623Z,45
2023-04-18T03:12:03.857Z,315
2023-04-18T03:28:01.254Z,270
2023-04-18T03:43:58.830Z,270
2023-04-18T03:54:36.894Z,315
2023-04-18T03:59:55.797Z,225
2023-04-18T04:10:34.044Z,225
2023-04-18T04:26:31.209Z,270
2023-04-18T04:37:09.371Z,270
2023-04-18T04:53:07.168Z,270
2023-04-18T05:09:05.462Z,225
2023-04-18T05:19:43.227Z,225
2023-04-18T05:25:02.588Z,225
2023-04-18T05:35:40.415Z,225
2023-04-18T05:51:39.112Z,270
2023-04-18T06:02:17.060Z,270
2023-04-18T06:07:36.066Z,270
2023-04-18T06:18:14.730Z,225
2023-04-18T06:34:13.157Z,45
2023-04-18T06:44:51.601Z,135
2023-04-18T06:55:30.526Z,315
2023-04-18T07:00:49.964Z,90
2023-04-18T07:11:28.432Z,0
2023-04-18T07:27:26.265Z,90
2023-04-18T07:38:04.953Z,90
2023-04-18T07:54:01.899Z,90
2023-04-18T08:09:59.140Z,90
2023-04-18T08:20:38.243Z,90
2023-04-18T08:25:57.405Z,90
2023-04-18T08:36:36.146Z,90
2023-04-18T08:52:33.417Z,45
2023-04-18T09:03:12.721Z,45
2023-04-18T09:08:31.862Z,45
2023-04-18T09:19:11.197Z,45
2023-04-18T09:24:30.000Z,45
2023-04-18T09:35:08.903Z,90
2023-04-18T09:45:47.177Z,0
2023-04-18T09:51:06.185Z,135
2023-04-18T10:01:45.200Z,45
2023-04-18T10:07:04.534Z,45
2023-04-18T10:17:52.658Z,45
2023-04-18T10:33:42.628Z,0
2023-04-18T10:44:19.247Z,45
2023-04-18T10:49:38.001Z,45
2023-04-18T11:00:16.234Z,45
2023-04-18T11:16:13.964Z,0
2023-04-18T11:26:51.950Z,45
2023-04-18T11:32:11.590Z,45
2023-04-18T11:42:49.886Z,90
2023-04-18T11:58:48.092Z,0
2023-04-18T12:09:26.389Z,90
2023-04-18T12:14:45.315Z,90
2023-04-18T12:25:27.258Z,90
2023-04-18T12:30:44.402Z,45
2023-04-18T12:41:22.686Z,90
2023-04-18T12:57:20.567Z,90
2023-04-18T13:08:05.071Z,45
2023-04-18T13:13:19.003Z,45
2023-04-18T13:23:57.669Z,45
2023-04-18T13:29:48.191Z,315
2023-04-18T13:35:04.022Z,135
2023-04-18T13:40:23.556Z,45
2023-04-18T13:51:02.599Z,0
2023-04-18T14:06:59.729Z,90
2023-04-18T14:22:55.771Z,45
2023-04-18T14:33:33.513Z,45
2023-04-18T14:38:52.377Z,45
2023-04-18T14:49:30.496Z,90
2023-04-18T15:05:28.434Z,45
2023-04-18T15:16:07.232Z,135
2023-04-18T15:32:05.412Z,90
2023-04-18T15:42:44.057Z,90
2023-04-18T15:48:03.488Z,135
2023-04-18T15:58:41.260Z,45
2023-04-18T16:04:00.683Z,0
2023-04-18T16:14:39.353Z,45
2023-04-18T16:30:37.579Z,90
2023-04-18T16:41:15.836Z,45
2023-04-18T16:46:34.871Z,45
2023-04-18T16:57:13.664Z,90
2023-04-18T17:13:11.474Z,45
2023-04-18T17:29:09.570Z,90
2023-04-18T17:39:49.687Z,90
2023-04-18T17:55:46.288Z,45
2023-04-18T18:11:44.665Z,90
2023-04-18T18:22:22.712Z,90
2023-04-18T18:27:41.561Z,90
2023-04-18T18:38:19.589Z,45
2023-04-18T18:43:39.123Z,90
2023-04-18T18:54:17.659Z,45
2023-04-18T19:04:56.650Z,45
2023-04-18T19:10:15.533Z,45
2023-04-18T19:20:53.995Z,45
2023-04-18T19:36:51.784Z,270
2023-04-18T19:52:49.609Z,90
2023-04-18T20:03:28.634Z,90
2023-04-18T20:08:48.303Z,45
2023-04-18T20:14:07.923Z,45
2023-04-18T20:30:06.628Z,90
2023-04-18T20:40:44.037Z,225
2023-04-18T20:46:03.672Z,90
2023-04-18T20:56:42.116Z,90
2023-04-18T21:12:39.363Z,45
2023-04-18T21:23:17.458Z,90
2023-04-18T21:28:37.009Z,45
2023-04-18T21:39:15.903Z,90
2023-04-18T21:55:15.129Z,90
2023-04-18T22:05:53.916Z,45
2023-04-18T22:11:13.296Z,180
2023-04-18T22:21:51.325Z,90
2023-04-18T22:27:09.433Z,90
2023-04-18T22:37:47.878Z,90
2023-04-18T22:53:46.058Z,90
2023-04-18T23:04:24.286Z,45
2023-04-18T23:20:22.680Z,135
2023-04-18T23:36:21.012Z,0
2023-04-18T23:46:59.667Z,0
2023-04-18T23:52:18.705Z,225
